sensor_id;sensor_type;location;lat;lon;timestamp;P1;durP1;ratioP1;P2;durP2;ratioP2
69847;SDS011;57143;55.940;37.496;2024-03-17T00:02:10;17.23;;;3.40;;
69847;SDS011;57143;55.940;37.496;2024-03-17T00:04:36;18.42;;;4.28;;
69847;SDS011;57143;55.940;37.496;2024-03-17T00:07:03;26.30;;;4.35;;
69847;SDS011;57143;55.940;37.496;2024-03-17T00:09:30;17.35;;;4.30;;
69847;SDS011;57143;55.940;37.496;2024-03-17T00:11:57;16.60;;;3.83;;
69847;SDS011;57143;55.940;37.496;2024-03-17T00:14:24;19.33;;;4.00;;
69847;SDS011;57143;55.940;37.496;2024-03-17T00:16:52;16.27;;;4.53;;
69847;SDS011;57143;55.940;37.496;2024-03-17T00:19:20;16.38;;;3.08;;
69847;SDS011;57143;55.940;37.496;2024-03-17T00:21:48;12.43;;;4.00;;
69847;SDS011;57143;55.940;37.496;2024-03-17T00:24:16;16.98;;;3.83;;
69847;SDS011;57143;55.940;37.496;2024-03-17T00:26:43;24.33;;;3.90;;
69847;SDS011;57143;55.940;37.496;2024-03-17T00:29:10;24.33;;;4.15;;
69847;SDS011;57143;55.940;37.496;2024-03-17T00:31:37;18.63;;;3.30;;
69847;SDS011;57143;55.940;37.496;2024-03-17T00:34:04;12.88;;;3.22;;
69847;SDS011;57143;55.940;37.496;2024-03-17T00:36:32;15.50;;;3.55;;
69847;SDS011;57143;55.940;37.496;2024-03-17T00:38:59;13.80;;;3.53;;
69847;SDS011;57143;55.940;37.496;2024-03-17T00:41:26;18.25;;;4.18;;
69847;SDS011;57143;55.940;37.496;2024-03-17T00:43:53;30.52;;;4.28;;
69847;SDS011;57143;55.940;37.496;2024-03-17T00:46:20;19.42;;;3.95;;
69847;SDS011;57143;55.940;37.496;2024-03-17T00:48:48;26.17;;;4.15;;
69847;SDS011;57143;55.940;37.496;2024-03-17T00:51:15;12.73;;;3.63;;
69847;SDS011;57143;55.940;37.496;2024-03-17T00:53:43;24.42;;;4.28;;
69847;SDS011;57143;55.940;37.496;2024-03-17T00:56:11;18.63;;;4.63;;
69847;SDS011;57143;55.940;37.496;2024-03-17T00:58:37;25.30;;;3.92;;
69847;SDS011;57143;55.940;37.496;2024-03-17T01:01:05;12.32;;;3.40;;
69847;SDS011;57143;55.940;37.496;2024-03-17T01:03:31;18.23;;;4.33;;
69847;SDS011;57143;55.940;37.496;2024-03-17T01:05:58;20.08;;;2.90;;
69847;SDS011;57143;55.940;37.496;2024-03-17T01:08:24;15.80;;;4.35;;
69847;SDS011;57143;55.940;37.496;2024-03-17T01:10:53;21.40;;;4.70;;
69847;SDS011;57143;55.940;37.496;2024-03-17T01:13:19;25.70;;;4.05;;
69847;SDS011;57143;55.940;37.496;2024-03-17T01:15:50;26.50;;;4.43;;
69847;SDS011;57143;55.940;37.496;2024-03-17T01:18:17;17.48;;;3.53;;
69847;SDS011;57143;55.940;37.496;2024-03-17T01:20:45;14.45;;;4.60;;
69847;SDS011;57143;55.940;37.496;2024-03-17T01:23:11;19.92;;;4.03;;
69847;SDS011;57143;55.940;37.496;2024-03-17T01:25:40;26.10;;;4.93;;
69847;SDS011;57143;55.940;37.496;2024-03-17T01:28:09;32.57;;;5.00;;
69847;SDS011;57143;55.940;37.496;2024-03-17T01:30:35;17.35;;;3.75;;
69847;SDS011;57143;55.940;37.496;2024-03-17T01:33:05;19.30;;;4.53;;
69847;SDS011;57143;55.940;37.496;2024-03-17T01:35:31;23.90;;;4.70;;
69847;SDS011;57143;55.940;37.496;2024-03-17T01:37:59;22.95;;;4.75;;
69847;SDS011;57143;55.940;37.496;2024-03-17T01:40:25;17.97;;;4.83;;
69847;SDS011;57143;55.940;37.496;2024-03-17T01:42:52;15.05;;;3.67;;
69847;SDS011;57143;55.940;37.496;2024-03-17T01:45:23;32.80;;;4.45;;
69847;SDS011;57143;55.940;37.496;2024-03-17T01:47:52;20.00;;;4.78;;
69847;SDS011;57143;55.940;37.496;2024-03-17T01:50:23;19.00;;;4.00;;
69847;SDS011;57143;55.940;37.496;2024-03-17T01:52:51;14.77;;;3.83;;
69847;SDS011;57143;55.940;37.496;2024-03-17T01:55:20;11.90;;;3.40;;
69847;SDS011;57143;55.940;37.496;2024-03-17T01:57:47;29.60;;;4.80;;
69847;SDS011;57143;55.940;37.496;2024-03-17T02:00:16;16.17;;;4.30;;
69847;SDS011;57143;55.940;37.496;2024-03-17T02:02:44;16.92;;;4.38;;
69847;SDS011;57143;55.940;37.496;2024-03-17T02:05:11;23.17;;;4.13;;
69847;SDS011;57143;55.940;37.496;2024-03-17T02:07:37;22.25;;;4.88;;
69847;SDS011;57143;55.940;37.496;2024-03-17T02:10:06;24.67;;;4.82;;
69847;SDS011;57143;55.940;37.496;2024-03-17T02:12:35;15.75;;;4.82;;
69847;SDS011;57143;55.940;37.496;2024-03-17T02:15:04;19.38;;;4.47;;
69847;SDS011;57143;55.940;37.496;2024-03-17T02:17:32;18.77;;;4.70;;
69847;SDS011;57143;55.940;37.496;2024-03-17T02:20:01;13.98;;;3.50;;
69847;SDS011;57143;55.940;37.496;2024-03-17T02:22:34;23.85;;;4.70;;
69847;SDS011;57143;55.940;37.496;2024-03-17T02:25:02;29.48;;;4.97;;
69847;SDS011;57143;55.940;37.496;2024-03-17T02:27:30;25.92;;;4.45;;
69847;SDS011;57143;55.940;37.496;2024-03-17T02:29:57;16.30;;;4.30;;
69847;SDS011;57143;55.940;37.496;2024-03-17T02:32:23;29.30;;;4.63;;
69847;SDS011;57143;55.940;37.496;2024-03-17T02:34:53;25.42;;;5.22;;
69847;SDS011;57143;55.940;37.496;2024-03-17T02:37:20;27.50;;;3.85;;
69847;SDS011;57143;55.940;37.496;2024-03-17T02:39:49;17.30;;;4.28;;
69847;SDS011;57143;55.940;37.496;2024-03-17T02:42:15;21.37;;;5.30;;
69847;SDS011;57143;55.940;37.496;2024-03-17T02:44:42;13.85;;;4.38;;
69847;SDS011;57143;55.940;37.496;2024-03-17T02:47:09;21.13;;;4.45;;
69847;SDS011;57143;55.940;37.496;2024-03-17T02:49:40;20.75;;;3.55;;
69847;SDS011;57143;55.940;37.496;2024-03-17T02:52:09;16.20;;;3.75;;
69847;SDS011;57143;55.940;37.496;2024-03-17T02:54:38;24.67;;;4.30;;
69847;SDS011;57143;55.940;37.496;2024-03-17T02:57:07;23.10;;;5.03;;
69847;SDS011;57143;55.940;37.496;2024-03-17T02:59:34;18.23;;;5.65;;
69847;SDS011;57143;55.940;37.496;2024-03-17T03:02:01;24.05;;;4.70;;
69847;SDS011;57143;55.940;37.496;2024-03-17T03:04:30;17.80;;;5.10;;
69847;SDS011;57143;55.940;37.496;2024-03-17T03:06:57;12.33;;;3.67;;
69847;SDS011;57143;55.940;37.496;2024-03-17T03:09:24;33.88;;;6.10;;
69847;SDS011;57143;55.940;37.496;2024-03-17T03:11:57;18.15;;;5.07;;
69847;SDS011;57143;55.940;37.496;2024-03-17T03:14:26;25.98;;;5.03;;
69847;SDS011;57143;55.940;37.496;2024-03-17T03:16:53;24.95;;;5.35;;
69847;SDS011;57143;55.940;37.496;2024-03-17T03:19:20;12.87;;;3.93;;
69847;SDS011;57143;55.940;37.496;2024-03-17T03:21:48;14.20;;;4.43;;
69847;SDS011;57143;55.940;37.496;2024-03-17T03:24:15;28.73;;;4.60;;
69847;SDS011;57143;55.940;37.496;2024-03-17T03:26:43;19.95;;;4.78;;
69847;SDS011;57143;55.940;37.496;2024-03-17T03:29:10;19.50;;;6.20;;
69847;SDS011;57143;55.940;37.496;2024-03-17T03:31:41;13.67;;;5.30;;
69847;SDS011;57143;55.940;37.496;2024-03-17T03:34:08;21.38;;;4.68;;
69847;SDS011;57143;55.940;37.496;2024-03-17T03:36:37;18.98;;;5.88;;
69847;SDS011;57143;55.940;37.496;2024-03-17T03:39:07;19.98;;;5.22;;
69847;SDS011;57143;55.940;37.496;2024-03-17T03:41:36;21.58;;;5.00;;
69847;SDS011;57143;55.940;37.496;2024-03-17T03:44:05;20.47;;;6.13;;
69847;SDS011;57143;55.940;37.496;2024-03-17T03:46:32;24.30;;;5.68;;
69847;SDS011;57143;55.940;37.496;2024-03-17T03:49:01;21.50;;;4.78;;
69847;SDS011;57143;55.940;37.496;2024-03-17T03:51:29;25.67;;;5.93;;
69847;SDS011;57143;55.940;37.496;2024-03-17T03:53:56;23.92;;;5.90;;
69847;SDS011;57143;55.940;37.496;2024-03-17T03:56:24;19.30;;;6.00;;
69847;SDS011;57143;55.940;37.496;2024-03-17T03:58:51;16.63;;;5.40;;
69847;SDS011;57143;55.940;37.496;2024-03-17T04:01:19;13.55;;;5.53;;
69847;SDS011;57143;55.940;37.496;2024-03-17T04:03:48;21.75;;;5.55;;
69847;SDS011;57143;55.940;37.496;2024-03-17T04:06:17;18.67;;;5.72;;
69847;SDS011;57143;55.940;37.496;2024-03-17T04:08:44;27.43;;;6.70;;
69847;SDS011;57143;55.940;37.496;2024-03-17T04:11:12;26.02;;;6.22;;
69847;SDS011;57143;55.940;37.496;2024-03-17T04:13:39;16.00;;;6.13;;
69847;SDS011;57143;55.940;37.496;2024-03-17T04:16:07;20.73;;;5.35;;
69847;SDS011;57143;55.940;37.496;2024-03-17T04:18:36;16.00;;;4.97;;
69847;SDS011;57143;55.940;37.496;2024-03-17T04:21:04;19.33;;;4.57;;
69847;SDS011;57143;55.940;37.496;2024-03-17T04:23:35;26.73;;;6.15;;
69847;SDS011;57143;55.940;37.496;2024-03-17T04:26:03;16.52;;;5.82;;
69847;SDS011;57143;55.940;37.496;2024-03-17T04:28:32;23.77;;;6.43;;
69847;SDS011;57143;55.940;37.496;2024-03-17T04:31:04;31.08;;;6.53;;
69847;SDS011;57143;55.940;37.496;2024-03-17T04:33:32;18.27;;;4.67;;
69847;SDS011;57143;55.940;37.496;2024-03-17T04:36:00;27.02;;;7.13;;
69847;SDS011;57143;55.940;37.496;2024-03-17T04:38:28;25.33;;;6.32;;
69847;SDS011;57143;55.940;37.496;2024-03-17T04:40:58;20.40;;;6.20;;
69847;SDS011;57143;55.940;37.496;2024-03-17T04:43:35;23.85;;;5.50;;
69847;SDS011;57143;55.940;37.496;2024-03-17T04:46:06;27.67;;;6.90;;
69847;SDS011;57143;55.940;37.496;2024-03-17T04:48:37;22.27;;;6.78;;
69847;SDS011;57143;55.940;37.496;2024-03-17T04:51:04;25.23;;;7.07;;
69847;SDS011;57143;55.940;37.496;2024-03-17T04:53:32;19.80;;;5.85;;
69847;SDS011;57143;55.940;37.496;2024-03-17T04:56:01;24.23;;;6.38;;
69847;SDS011;57143;55.940;37.496;2024-03-17T04:58:31;24.90;;;6.53;;
69847;SDS011;57143;55.940;37.496;2024-03-17T05:01:03;24.13;;;6.55;;
69847;SDS011;57143;55.940;37.496;2024-03-17T05:03:32;25.10;;;6.57;;
69847;SDS011;57143;55.940;37.496;2024-03-17T05:06:00;16.50;;;6.70;;
69847;SDS011;57143;55.940;37.496;2024-03-17T05:08:28;28.48;;;6.18;;
69847;SDS011;57143;55.940;37.496;2024-03-17T05:10:57;18.10;;;6.73;;
69847;SDS011;57143;55.940;37.496;2024-03-17T05:13:26;24.35;;;6.10;;
69847;SDS011;57143;55.940;37.496;2024-03-17T05:15:54;14.48;;;5.13;;
69847;SDS011;57143;55.940;37.496;2024-03-17T05:18:21;24.27;;;6.57;;
69847;SDS011;57143;55.940;37.496;2024-03-17T05:20:57;23.00;;;6.90;;
69847;SDS011;57143;55.940;37.496;2024-03-17T05:23:27;25.67;;;6.33;;
69847;SDS011;57143;55.940;37.496;2024-03-17T05:25:55;23.52;;;6.60;;
69847;SDS011;57143;55.940;37.496;2024-03-17T05:28:22;24.33;;;5.80;;
69847;SDS011;57143;55.940;37.496;2024-03-17T05:30:52;25.65;;;6.30;;
69847;SDS011;57143;55.940;37.496;2024-03-17T05:33:20;21.38;;;7.05;;
69847;SDS011;57143;55.940;37.496;2024-03-17T05:35:48;23.50;;;7.17;;
69847;SDS011;57143;55.940;37.496;2024-03-17T05:38:18;21.13;;;6.60;;
69847;SDS011;57143;55.940;37.496;2024-03-17T05:40:53;26.65;;;6.57;;
69847;SDS011;57143;55.940;37.496;2024-03-17T05:43:25;19.17;;;6.97;;
69847;SDS011;57143;55.940;37.496;2024-03-17T05:45:56;20.00;;;6.57;;
69847;SDS011;57143;55.940;37.496;2024-03-17T05:48:24;29.43;;;7.50;;
69847;SDS011;57143;55.940;37.496;2024-03-17T05:50:52;23.48;;;6.18;;
69847;SDS011;57143;55.940;37.496;2024-03-17T05:53:20;24.70;;;7.30;;
69847;SDS011;57143;55.940;37.496;2024-03-17T05:55:49;22.55;;;6.43;;
69847;SDS011;57143;55.940;37.496;2024-03-17T05:58:17;23.05;;;6.57;;
69847;SDS011;57143;55.940;37.496;2024-03-17T06:00:45;19.30;;;7.80;;
69847;SDS011;57143;55.940;37.496;2024-03-17T06:03:14;21.58;;;7.22;;
69847;SDS011;57143;55.940;37.496;2024-03-17T06:05:45;18.58;;;7.07;;
69847;SDS011;57143;55.940;37.496;2024-03-17T06:08:13;25.95;;;7.03;;
69847;SDS011;57143;55.940;37.496;2024-03-17T06:10:42;26.58;;;7.47;;
69847;SDS011;57143;55.940;37.496;2024-03-17T06:13:11;23.40;;;7.23;;
69847;SDS011;57143;55.940;37.496;2024-03-17T06:15:41;21.02;;;6.65;;
69847;SDS011;57143;55.940;37.496;2024-03-17T06:18:10;22.63;;;7.25;;
69847;SDS011;57143;55.940;37.496;2024-03-17T06:20:41;22.52;;;7.68;;
69847;SDS011;57143;55.940;37.496;2024-03-17T06:23:09;22.38;;;6.63;;
69847;SDS011;57143;55.940;37.496;2024-03-17T06:25:38;19.33;;;6.50;;
69847;SDS011;57143;55.940;37.496;2024-03-17T06:28:07;27.50;;;6.85;;
69847;SDS011;57143;55.940;37.496;2024-03-17T06:30:36;24.40;;;7.30;;
69847;SDS011;57143;55.940;37.496;2024-03-17T06:33:03;34.50;;;7.25;;
69847;SDS011;57143;55.940;37.496;2024-03-17T06:35:31;24.48;;;7.70;;
69847;SDS011;57143;55.940;37.496;2024-03-17T06:38:00;24.07;;;7.30;;
69847;SDS011;57143;55.940;37.496;2024-03-17T06:40:28;27.77;;;7.97;;
69847;SDS011;57143;55.940;37.496;2024-03-17T06:42:56;19.52;;;7.43;;
69847;SDS011;57143;55.940;37.496;2024-03-17T06:45:23;30.17;;;7.22;;
69847;SDS011;57143;55.940;37.496;2024-03-17T06:47:50;28.13;;;7.72;;
69847;SDS011;57143;55.940;37.496;2024-03-17T06:50:18;27.90;;;7.83;;
69847;SDS011;57143;55.940;37.496;2024-03-17T06:52:45;36.35;;;7.97;;
69847;SDS011;57143;55.940;37.496;2024-03-17T06:55:14;26.17;;;7.05;;
69847;SDS011;57143;55.940;37.496;2024-03-17T06:57:43;22.27;;;7.80;;
69847;SDS011;57143;55.940;37.496;2024-03-17T07:00:12;25.33;;;7.38;;
69847;SDS011;57143;55.940;37.496;2024-03-17T07:02:41;23.10;;;8.03;;
69847;SDS011;57143;55.940;37.496;2024-03-17T07:05:13;27.35;;;8.13;;
69847;SDS011;57143;55.940;37.496;2024-03-17T07:07:41;20.58;;;7.75;;
69847;SDS011;57143;55.940;37.496;2024-03-17T07:10:09;26.73;;;7.35;;
69847;SDS011;57143;55.940;37.496;2024-03-17T07:12:38;29.50;;;7.78;;
69847;SDS011;57143;55.940;37.496;2024-03-17T07:15:06;29.90;;;8.40;;
69847;SDS011;57143;55.940;37.496;2024-03-17T07:17:34;33.70;;;8.35;;
69847;SDS011;57143;55.940;37.496;2024-03-17T07:20:01;23.83;;;7.38;;
69847;SDS011;57143;55.940;37.496;2024-03-17T07:22:33;20.42;;;6.55;;
69847;SDS011;57143;55.940;37.496;2024-03-17T07:25:01;25.00;;;7.25;;
69847;SDS011;57143;55.940;37.496;2024-03-17T07:27:31;25.67;;;7.03;;
69847;SDS011;57143;55.940;37.496;2024-03-17T07:30:05;23.90;;;7.53;;
69847;SDS011;57143;55.940;37.496;2024-03-17T07:32:32;21.17;;;6.68;;
69847;SDS011;57143;55.940;37.496;2024-03-17T07:35:03;27.73;;;7.20;;
69847;SDS011;57143;55.940;37.496;2024-03-17T07:37:31;21.38;;;6.72;;
69847;SDS011;57143;55.940;37.496;2024-03-17T07:39:59;32.97;;;8.33;;
69847;SDS011;57143;55.940;37.496;2024-03-17T07:42:27;28.55;;;7.15;;
69847;SDS011;57143;55.940;37.496;2024-03-17T07:44:55;21.13;;;6.43;;
69847;SDS011;57143;55.940;37.496;2024-03-17T07:47:23;25.15;;;7.00;;
69847;SDS011;57143;55.940;37.496;2024-03-17T07:49:51;22.17;;;7.40;;
69847;SDS011;57143;55.940;37.496;2024-03-17T07:52:19;23.73;;;7.00;;
69847;SDS011;57143;55.940;37.496;2024-03-17T07:54:46;23.80;;;7.00;;
69847;SDS011;57143;55.940;37.496;2024-03-17T07:57:13;18.80;;;6.53;;
69847;SDS011;57143;55.940;37.496;2024-03-17T07:59:41;16.58;;;6.32;;
69847;SDS011;57143;55.940;37.496;2024-03-17T08:02:08;19.73;;;7.00;;
69847;SDS011;57143;55.940;37.496;2024-03-17T08:04:37;30.33;;;7.47;;
69847;SDS011;57143;55.940;37.496;2024-03-17T08:07:04;24.65;;;6.78;;
69847;SDS011;57143;55.940;37.496;2024-03-17T08:09:32;24.30;;;7.30;;
69847;SDS011;57143;55.940;37.496;2024-03-17T08:11:59;23.48;;;7.00;;
69847;SDS011;57143;55.940;37.496;2024-03-17T08:14:30;25.20;;;7.32;;
69847;SDS011;57143;55.940;37.496;2024-03-17T08:16:57;21.80;;;6.57;;
69847;SDS011;57143;55.940;37.496;2024-03-17T08:19:24;18.80;;;5.57;;
69847;SDS011;57143;55.940;37.496;2024-03-17T08:21:53;23.63;;;6.60;;
69847;SDS011;57143;55.940;37.496;2024-03-17T08:24:20;20.13;;;7.20;;
69847;SDS011;57143;55.940;37.496;2024-03-17T08:26:48;22.13;;;6.88;;
69847;SDS011;57143;55.940;37.496;2024-03-17T08:29:15;18.90;;;6.73;;
69847;SDS011;57143;55.940;37.496;2024-03-17T08:31:43;23.85;;;6.30;;
69847;SDS011;57143;55.940;37.496;2024-03-17T08:34:10;17.73;;;6.45;;
69847;SDS011;57143;55.940;37.496;2024-03-17T08:36:38;21.17;;;6.13;;
69847;SDS011;57143;55.940;37.496;2024-03-17T08:39:06;18.88;;;6.25;;
69847;SDS011;57143;55.940;37.496;2024-03-17T08:41:36;23.67;;;6.93;;
69847;SDS011;57143;55.940;37.496;2024-03-17T08:44:04;12.75;;;5.75;;
69847;SDS011;57143;55.940;37.496;2024-03-17T08:46:31;25.55;;;7.80;;
69847;SDS011;57143;55.940;37.496;2024-03-17T08:48:59;19.67;;;7.13;;
69847;SDS011;57143;55.940;37.496;2024-03-17T08:51:26;16.02;;;6.10;;
69847;SDS011;57143;55.940;37.496;2024-03-17T08:53:53;26.70;;;6.30;;
69847;SDS011;57143;55.940;37.496;2024-03-17T08:56:23;26.63;;;7.10;;
69847;SDS011;57143;55.940;37.496;2024-03-17T08:58:51;27.35;;;7.47;;
69847;SDS011;57143;55.940;37.496;2024-03-17T09:01:18;20.17;;;5.85;;
69847;SDS011;57143;55.940;37.496;2024-03-17T09:06:31;17.73;;;6.17;;
69847;SDS011;57143;55.940;37.496;2024-03-17T09:09:00;18.88;;;6.93;;
69847;SDS011;57143;55.940;37.496;2024-03-17T09:11:29;27.00;;;7.60;;
69847;SDS011;57143;55.940;37.496;2024-03-17T09:13:57;25.42;;;7.82;;
69847;SDS011;57143;55.940;37.496;2024-03-17T09:16:25;21.73;;;7.32;;
69847;SDS011;57143;55.940;37.496;2024-03-17T09:18:56;23.33;;;7.23;;
69847;SDS011;57143;55.940;37.496;2024-03-17T09:21:23;29.42;;;8.30;;
69847;SDS011;57143;55.940;37.496;2024-03-17T09:23:50;21.65;;;8.00;;
69847;SDS011;57143;55.940;37.496;2024-03-17T09:26:18;30.25;;;8.35;;
69847;SDS011;57143;55.940;37.496;2024-03-17T09:28:46;22.83;;;8.20;;
69847;SDS011;57143;55.940;37.496;2024-03-17T09:31:14;25.27;;;6.50;;
69847;SDS011;57143;55.940;37.496;2024-03-17T09:33:41;22.70;;;7.47;;
69847;SDS011;57143;55.940;37.496;2024-03-17T09:36:09;22.00;;;7.57;;
69847;SDS011;57143;55.940;37.496;2024-03-17T09:38:38;24.70;;;9.25;;
69847;SDS011;57143;55.940;37.496;2024-03-17T09:41:06;27.27;;;8.32;;
69847;SDS011;57143;55.940;37.496;2024-03-17T09:43:34;33.87;;;8.80;;
69847;SDS011;57143;55.940;37.496;2024-03-17T09:46:04;30.25;;;8.52;;
69847;SDS011;57143;55.940;37.496;2024-03-17T09:48:32;26.98;;;8.75;;
69847;SDS011;57143;55.940;37.496;2024-03-17T09:51:02;20.83;;;7.57;;
69847;SDS011;57143;55.940;37.496;2024-03-17T09:53:31;24.45;;;8.90;;
69847;SDS011;57143;55.940;37.496;2024-03-17T09:56:00;24.03;;;8.50;;
69847;SDS011;57143;55.940;37.496;2024-03-17T09:58:30;25.83;;;6.90;;
69847;SDS011;57143;55.940;37.496;2024-03-17T10:00:58;32.00;;;8.57;;
69847;SDS011;57143;55.940;37.496;2024-03-17T10:03:43;28.45;;;9.05;;
69847;SDS011;57143;55.940;37.496;2024-03-17T10:06:12;30.77;;;8.68;;
69847;SDS011;57143;55.940;37.496;2024-03-17T10:08:40;26.23;;;8.13;;
69847;SDS011;57143;55.940;37.496;2024-03-17T10:11:09;25.27;;;8.27;;
69847;SDS011;57143;55.940;37.496;2024-03-17T10:13:36;26.02;;;7.97;;
69847;SDS011;57143;55.940;37.496;2024-03-17T10:16:04;21.80;;;8.10;;
69847;SDS011;57143;55.940;37.496;2024-03-17T10:18:31;26.92;;;6.80;;
69847;SDS011;57143;55.940;37.496;2024-03-17T10:21:00;29.90;;;7.60;;
69847;SDS011;57143;55.940;37.496;2024-03-17T10:23:28;29.42;;;8.73;;
69847;SDS011;57143;55.940;37.496;2024-03-17T10:25:55;28.08;;;9.07;;
69847;SDS011;57143;55.940;37.496;2024-03-17T10:28:23;25.23;;;7.95;;
69847;SDS011;57143;55.940;37.496;2024-03-17T10:30:57;32.67;;;7.72;;
69847;SDS011;57143;55.940;37.496;2024-03-17T10:33:25;24.27;;;7.80;;
69847;SDS011;57143;55.940;37.496;2024-03-17T10:36:04;30.60;;;8.90;;
69847;SDS011;57143;55.940;37.496;2024-03-17T10:38:31;31.50;;;8.90;;
69847;SDS011;57143;55.940;37.496;2024-03-17T10:41:00;30.60;;;8.35;;
69847;SDS011;57143;55.940;37.496;2024-03-17T10:43:28;23.67;;;8.57;;
69847;SDS011;57143;55.940;37.496;2024-03-17T10:45:56;30.07;;;8.93;;
69847;SDS011;57143;55.940;37.496;2024-03-17T10:48:26;22.10;;;8.30;;
69847;SDS011;57143;55.940;37.496;2024-03-17T10:50:59;26.83;;;7.97;;
69847;SDS011;57143;55.940;37.496;2024-03-17T10:53:29;27.90;;;8.13;;
69847;SDS011;57143;55.940;37.496;2024-03-17T10:56:02;22.17;;;7.90;;
69847;SDS011;57143;55.940;37.496;2024-03-17T10:58:34;18.10;;;7.07;;
69847;SDS011;57143;55.940;37.496;2024-03-17T11:01:03;21.30;;;7.15;;
69847;SDS011;57143;55.940;37.496;2024-03-17T11:03:33;25.00;;;7.18;;
69847;SDS011;57143;55.940;37.496;2024-03-17T11:06:01;24.70;;;6.93;;
69847;SDS011;57143;55.940;37.496;2024-03-17T11:08:32;27.10;;;6.55;;
69847;SDS011;57143;55.940;37.496;2024-03-17T11:11:01;21.03;;;7.20;;
69847;SDS011;57143;55.940;37.496;2024-03-17T11:13:29;23.70;;;7.03;;
69847;SDS011;57143;55.940;37.496;2024-03-17T11:15:57;21.85;;;5.80;;
69847;SDS011;57143;55.940;37.496;2024-03-17T11:18:34;24.30;;;7.13;;
69847;SDS011;57143;55.940;37.496;2024-03-17T11:21:02;27.23;;;7.63;;
69847;SDS011;57143;55.940;37.496;2024-03-17T11:23:38;24.03;;;6.97;;
69847;SDS011;57143;55.940;37.496;2024-03-17T11:26:06;20.67;;;6.30;;
69847;SDS011;57143;55.940;37.496;2024-03-17T11:28:46;17.67;;;6.82;;
69847;SDS011;57143;55.940;37.496;2024-03-17T11:34:03;26.45;;;7.32;;
69847;SDS011;57143;55.940;37.496;2024-03-17T11:36:37;16.47;;;5.83;;
69847;SDS011;57143;55.940;37.496;2024-03-17T11:39:05;20.27;;;6.68;;
69847;SDS011;57143;55.940;37.496;2024-03-17T11:41:42;26.30;;;6.18;;
69847;SDS011;57143;55.940;37.496;2024-03-17T11:44:25;20.25;;;5.43;;
69847;SDS011;57143;55.940;37.496;2024-03-17T11:46:55;20.40;;;6.65;;
69847;SDS011;57143;55.940;37.496;2024-03-17T11:49:24;23.60;;;7.10;;
69847;SDS011;57143;55.940;37.496;2024-03-17T11:51:54;20.92;;;6.38;;
69847;SDS011;57143;55.940;37.496;2024-03-17T11:54:22;20.08;;;6.13;;
69847;SDS011;57143;55.940;37.496;2024-03-17T11:56:53;17.00;;;5.57;;
69847;SDS011;57143;55.940;37.496;2024-03-17T11:59:20;14.77;;;5.25;;
69847;SDS011;57143;55.940;37.496;2024-03-17T12:01:49;19.30;;;5.20;;
69847;SDS011;57143;55.940;37.496;2024-03-17T12:04:16;24.98;;;6.45;;
69847;SDS011;57143;55.940;37.496;2024-03-17T12:06:46;24.02;;;6.03;;
69847;SDS011;57143;55.940;37.496;2024-03-17T12:09:20;18.17;;;6.25;;
69847;SDS011;57143;55.940;37.496;2024-03-17T12:12:08;23.65;;;5.97;;
69847;SDS011;57143;55.940;37.496;2024-03-17T12:14:35;24.40;;;6.07;;
69847;SDS011;57143;55.940;37.496;2024-03-17T12:17:04;21.77;;;6.50;;
69847;SDS011;57143;55.940;37.496;2024-03-17T12:19:32;18.90;;;5.82;;
69847;SDS011;57143;55.940;37.496;2024-03-17T12:22:01;17.05;;;5.95;;
69847;SDS011;57143;55.940;37.496;2024-03-17T12:24:29;25.67;;;6.32;;
69847;SDS011;57143;55.940;37.496;2024-03-17T12:26:58;17.93;;;4.87;;
69847;SDS011;57143;55.940;37.496;2024-03-17T12:29:27;16.55;;;5.03;;
69847;SDS011;57143;55.940;37.496;2024-03-17T12:31:58;25.20;;;6.20;;
69847;SDS011;57143;55.940;37.496;2024-03-17T12:34:27;21.45;;;6.40;;
69847;SDS011;57143;55.940;37.496;2024-03-17T12:36:57;25.38;;;6.53;;
69847;SDS011;57143;55.940;37.496;2024-03-17T12:39:25;26.10;;;5.67;;
69847;SDS011;57143;55.940;37.496;2024-03-17T12:42:03;23.63;;;6.25;;
69847;SDS011;57143;55.940;37.496;2024-03-17T12:44:32;17.58;;;5.22;;
69847;SDS011;57143;55.940;37.496;2024-03-17T12:47:01;23.38;;;6.07;;
69847;SDS011;57143;55.940;37.496;2024-03-17T12:49:29;25.20;;;7.10;;
69847;SDS011;57143;55.940;37.496;2024-03-17T12:51:58;21.90;;;6.50;;
69847;SDS011;57143;55.940;37.496;2024-03-17T12:54:26;30.33;;;7.18;;
69847;SDS011;57143;55.940;37.496;2024-03-17T12:57:03;30.50;;;7.60;;
69847;SDS011;57143;55.940;37.496;2024-03-17T12:59:49;23.65;;;6.70;;
69847;SDS011;57143;55.940;37.496;2024-03-17T13:02:34;24.10;;;5.53;;
69847;SDS011;57143;55.940;37.496;2024-03-17T13:05:07;18.37;;;5.63;;
69847;SDS011;57143;55.940;37.496;2024-03-17T13:07:41;21.75;;;6.10;;
69847;SDS011;57143;55.940;37.496;2024-03-17T13:10:15;19.38;;;6.93;;
69847;SDS011;57143;55.940;37.496;2024-03-17T13:12:44;22.45;;;6.13;;
69847;SDS011;57143;55.940;37.496;2024-03-17T13:15:13;22.55;;;7.07;;
69847;SDS011;57143;55.940;37.496;2024-03-17T13:17:41;36.83;;;7.20;;
69847;SDS011;57143;55.940;37.496;2024-03-17T13:20:12;18.27;;;5.95;;
69847;SDS011;57143;55.940;37.496;2024-03-17T13:22:42;28.02;;;7.18;;
69847;SDS011;57143;55.940;37.496;2024-03-17T13:25:13;23.45;;;6.30;;
69847;SDS011;57143;55.940;37.496;2024-03-17T13:27:42;21.33;;;5.28;;
69847;SDS011;57143;55.940;37.496;2024-03-17T13:30:10;25.53;;;6.50;;
69847;SDS011;57143;55.940;37.496;2024-03-17T13:32:40;22.63;;;7.20;;
69847;SDS011;57143;55.940;37.496;2024-03-17T13:35:14;20.70;;;6.25;;
69847;SDS011;57143;55.940;37.496;2024-03-17T13:37:42;22.27;;;5.82;;
69847;SDS011;57143;55.940;37.496;2024-03-17T13:40:08;27.35;;;6.75;;
69847;SDS011;57143;55.940;37.496;2024-03-17T13:42:38;24.00;;;4.97;;
69847;SDS011;57143;55.940;37.496;2024-03-17T13:45:06;24.67;;;5.88;;
69847;SDS011;57143;55.940;37.496;2024-03-17T13:47:39;23.35;;;6.13;;
69847;SDS011;57143;55.940;37.496;2024-03-17T13:50:08;21.13;;;5.50;;
69847;SDS011;57143;55.940;37.496;2024-03-17T13:52:38;20.77;;;5.45;;
69847;SDS011;57143;55.940;37.496;2024-03-17T13:55:06;28.17;;;6.00;;
69847;SDS011;57143;55.940;37.496;2024-03-17T13:57:41;20.42;;;5.57;;
69847;SDS011;57143;55.940;37.496;2024-03-17T14:00:10;25.73;;;5.75;;
69847;SDS011;57143;55.940;37.496;2024-03-17T14:02:43;23.75;;;5.53;;
69847;SDS011;57143;55.940;37.496;2024-03-17T14:05:11;23.05;;;5.95;;
69847;SDS011;57143;55.940;37.496;2024-03-17T14:07:39;23.43;;;5.33;;
69847;SDS011;57143;55.940;37.496;2024-03-17T14:10:08;23.67;;;5.72;;
69847;SDS011;57143;55.940;37.496;2024-03-17T14:12:37;24.92;;;6.25;;
69847;SDS011;57143;55.940;37.496;2024-03-17T14:15:05;26.77;;;6.28;;
69847;SDS011;57143;55.940;37.496;2024-03-17T14:17:36;18.55;;;6.13;;
69847;SDS011;57143;55.940;37.496;2024-03-17T14:20:05;23.73;;;6.20;;
69847;SDS011;57143;55.940;37.496;2024-03-17T14:22:35;22.30;;;6.03;;
69847;SDS011;57143;55.940;37.496;2024-03-17T14:25:04;20.13;;;5.47;;
69847;SDS011;57143;55.940;37.496;2024-03-17T14:27:32;30.70;;;5.93;;
69847;SDS011;57143;55.940;37.496;2024-03-17T14:30:00;27.63;;;6.43;;
69847;SDS011;57143;55.940;37.496;2024-03-17T14:32:31;26.37;;;6.70;;
69847;SDS011;57143;55.940;37.496;2024-03-17T14:34:59;26.70;;;5.60;;
69847;SDS011;57143;55.940;37.496;2024-03-17T14:37:28;17.45;;;6.07;;